sensor_id;sensor_type;location;lat;lon;timestamp;temperature;humidity
21176;DHT22;10746;50.178;8.186;2022-08-01T00:01:30;19.80;99.90
21176;DHT22;10746;50.178;8.186;2022-08-01T00:03:58;19.70;99.90
21176;DHT22;10746;50.178;8.186;2022-08-01T00:06:25;19.70;99.90
21176;DHT22;10746;50.178;8.186;2022-08-01T00:08:52;19.60;99.90
21176;DHT22;10746;50.178;8.186;2022-08-01T00:11:19;19.50;99.90
21176;DHT22;10746;50.178;8.186;2022-08-01T00:13:45;19.40;99.90
21176;DHT22;10746;50.178;8.186;2022-08-01T00:16:12;19.40;99.90
21176;DHT22;10746;50.178;8.186;2022-08-01T00:18:39;19.30;99.90
21176;DHT22;10746;50.178;8.186;2022-08-01T00:21:07;19.30;99.90
21176;DHT22;10746;50.178;8.186;2022-08-01T00:23:34;19.30;99.90
21176;DHT22;10746;50.178;8.186;2022-08-01T00:26:01;19.20;99.90
21176;DHT22;10746;50.178;8.186;2022-08-01T00:28:28;19.20;99.90
21176;DHT22;10746;50.178;8.186;2022-08-01T00:30:54;19.20;99.90
21176;DHT22;10746;50.178;8.186;2022-08-01T00:33:21;19.10;99.90
21176;DHT22;10746;50.178;8.186;2022-08-01T00:35:48;19.10;99.90
21176;DHT22;10746;50.178;8.186;2022-08-01T00:38:16;19.00;99.90
21176;DHT22;10746;50.178;8.186;2022-08-01T00:40:42;19.10;99.90
21176;DHT22;10746;50.178;8.186;2022-08-01T00:43:09;19.00;99.90
21176;DHT22;10746;50.178;8.186;2022-08-01T00:45:36;19.00;99.90
21176;DHT22;10746;50.178;8.186;2022-08-01T00:48:03;18.90;99.90
21176;DHT22;10746;50.178;8.186;2022-08-01T00:50:30;18.80;99.90
21176;DHT22;10746;50.178;8.186;2022-08-01T00:52:58;18.80;99.90
21176;DHT22;10746;50.178;8.186;2022-08-01T00:55:27;18.70;99.90
21176;DHT22;10746;50.178;8.186;2022-08-01T00:57:54;18.70;99.90
21176;DHT22;10746;50.178;8.186;2022-08-01T01:00:22;18.70;99.90
21176;DHT22;10746;50.178;8.186;2022-08-01T01:02:49;18.60;99.90
21176;DHT22;10746;50.178;8.186;2022-08-01T01:05:16;18.60;99.90
21176;DHT22;10746;50.178;8.186;2022-08-01T01:07:48;18.60;99.90
21176;DHT22;10746;50.178;8.186;2022-08-01T01:10:19;18.50;99.90
21176;DHT22;10746;50.178;8.186;2022-08-01T01:12:54;18.50;99.90
21176;DHT22;10746;50.178;8.186;2022-08-01T01:15:25;18.40;99.90
21176;DHT22;10746;50.178;8.186;2022-08-01T01:17:56;18.30;99.90
21176;DHT22;10746;50.178;8.186;2022-08-01T01:20:27;18.40;99.90
21176;DHT22;10746;50.178;8.186;2022-08-01T01:23:10;18.30;99.90
21176;DHT22;10746;50.178;8.186;2022-08-01T01:25:54;18.30;99.90
21176;DHT22;10746;50.178;8.186;2022-08-01T01:28:33;18.30;99.90
21176;DHT22;10746;50.178;8.186;2022-08-01T01:31:05;18.20;99.90
21176;DHT22;10746;50.178;8.186;2022-08-01T01:33:34;18.10;99.90
21176;DHT22;10746;50.178;8.186;2022-08-01T01:36:05;18.20;99.90
21176;DHT22;10746;50.178;8.186;2022-08-01T01:38:36;18.20;99.90
21176;DHT22;10746;50.178;8.186;2022-08-01T01:41:08;18.10;99.90
21176;DHT22;10746;50.178;8.186;2022-08-01T01:43:36;18.00;99.90
21176;DHT22;10746;50.178;8.186;2022-08-01T01:46:05;18.00;99.90
21176;DHT22;10746;50.178;8.186;2022-08-01T01:48:33;18.00;99.90
21176;DHT22;10746;50.178;8.186;2022-08-01T01:51:01;17.90;99.90
21176;DHT22;10746;50.178;8.186;2022-08-01T01:53:28;17.90;99.90
21176;DHT22;10746;50.178;8.186;2022-08-01T01:55:59;17.90;99.90
21176;DHT22;10746;50.178;8.186;2022-08-01T01:58:27;17.90;99.90
21176;DHT22;10746;50.178;8.186;2022-08-01T02:00:56;17.80;99.90
21176;DHT22;10746;50.178;8.186;2022-08-01T02:03:26;17.90;99.90
21176;DHT22;10746;50.178;8.186;2022-08-01T02:05:54;17.80;99.90
21176;DHT22;10746;50.178;8.186;2022-08-01T02:08:23;17.80;99.90
21176;DHT22;10746;50.178;8.186;2022-08-01T02:10:51;17.80;99.90
21176;DHT22;10746;50.178;8.186;2022-08-01T02:13:36;17.90;99.90
21176;DHT22;10746;50.178;8.186;2022-08-01T02:16:05;17.90;99.90
21176;DHT22;10746;50.178;8.186;2022-08-01T02:18:33;17.90;99.90
21176;DHT22;10746;50.178;8.186;2022-08-01T02:21:03;17.90;99.90
21176;DHT22;10746;50.178;8.186;2022-08-01T02:23:32;17.90;99.90
21176;DHT22;10746;50.178;8.186;2022-08-01T02:26:01;17.90;99.90
21176;DHT22;10746;50.178;8.186;2022-08-01T02:28:33;18.00;99.90
21176;DHT22;10746;50.178;8.186;2022-08-01T02:31:02;17.90;99.90
21176;DHT22;10746;50.178;8.186;2022-08-01T02:33:40;17.90;99.90
21176;DHT22;10746;50.178;8.186;2022-08-01T02:36:08;17.90;99.90
21176;DHT22;10746;50.178;8.186;2022-08-01T02:38:40;17.90;99.90
21176;DHT22;10746;50.178;8.186;2022-08-01T02:41:08;17.90;99.90
21176;DHT22;10746;50.178;8.186;2022-08-01T02:43:37;17.90;99.90
21176;DHT22;10746;50.178;8.186;2022-08-01T02:46:06;17.80;99.90
21176;DHT22;10746;50.178;8.186;2022-08-01T02:48:35;17.80;99.90
21176;DHT22;10746;50.178;8.186;2022-08-01T02:51:05;17.80;99.90
21176;DHT22;10746;50.178;8.186;2022-08-01T02:53:33;17.90;99.90
21176;DHT22;10746;50.178;8.186;2022-08-01T02:56:05;17.80;99.90
21176;DHT22;10746;50.178;8.186;2022-08-01T02:58:33;17.90;99.90
21176;DHT22;10746;50.178;8.186;2022-08-01T03:01:02;17.90;99.90
21176;DHT22;10746;50.178;8.186;2022-08-01T03:03:29;18.00;99.90
21176;DHT22;10746;50.178;8.186;2022-08-01T03:05:57;18.10;99.90
21176;DHT22;10746;50.178;8.186;2022-08-01T03:08:27;18.10;99.90
21176;DHT22;10746;50.178;8.186;2022-08-01T03:10:55;18.00;99.90
21176;DHT22;10746;50.178;8.186;2022-08-01T03:13:25;18.00;99.90
21176;DHT22;10746;50.178;8.186;2022-08-01T03:15:53;17.90;99.90
21176;DHT22;10746;50.178;8.186;2022-08-01T03:18:21;17.90;99.90
21176;DHT22;10746;50.178;8.186;2022-08-01T03:20:52;17.90;99.90
21176;DHT22;10746;50.178;8.186;2022-08-01T03:23:21;17.90;99.90
21176;DHT22;10746;50.178;8.186;2022-08-01T03:25:51;18.10;99.90
21176;DHT22;10746;50.178;8.186;2022-08-01T03:28:19;18.10;99.90
21176;DHT22;10746;50.178;8.186;2022-08-01T03:30:47;18.20;99.90
21176;DHT22;10746;50.178;8.186;2022-08-01T03:33:15;18.20;99.90
21176;DHT22;10746;50.178;8.186;2022-08-01T03:35:46;18.20;99.90
21176;DHT22;10746;50.178;8.186;2022-08-01T03:38:17;18.20;99.90
21176;DHT22;10746;50.178;8.186;2022-08-01T03:40:47;18.20;99.90
21176;DHT22;10746;50.178;8.186;2022-08-01T03:43:20;18.20;99.90
21176;DHT22;10746;50.178;8.186;2022-08-01T03:45:51;18.30;99.90
21176;DHT22;10746;50.178;8.186;2022-08-01T03:48:22;18.20;99.90
21176;DHT22;10746;50.178;8.186;2022-08-01T03:50:51;18.30;99.90
21176;DHT22;10746;50.178;8.186;2022-08-01T03:53:20;18.20;99.90
21176;DHT22;10746;50.178;8.186;2022-08-01T03:55:49;18.00;99.90
21176;DHT22;10746;50.178;8.186;2022-08-01T03:58:18;18.10;99.90
21176;DHT22;10746;50.178;8.186;2022-08-01T04:00:45;18.00;99.90
21176;DHT22;10746;50.178;8.186;2022-08-01T04:03:13;17.90;99.90
21176;DHT22;10746;50.178;8.186;2022-08-01T04:05:41;18.00;99.90
21176;DHT22;10746;50.178;8.186;2022-08-01T04:08:08;17.90;99.90
21176;DHT22;10746;50.178;8.186;2022-08-01T04:10:35;18.00;99.90
21176;DHT22;10746;50.178;8.186;2022-08-01T04:13:02;18.00;99.90
21176;DHT22;10746;50.178;8.186;2022-08-01T04:15:31;18.00;99.90
21176;DHT22;10746;50.178;8.186;2022-08-01T04:17:57;18.10;99.90
21176;DHT22;10746;50.178;8.186;2022-08-01T04:20:24;18.10;99.90
21176;DHT22;10746;50.178;8.186;2022-08-01T04:22:51;18.20;99.90
21176;DHT22;10746;50.178;8.186;2022-08-01T04:25:23;18.30;99.90
21176;DHT22;10746;50.178;8.186;2022-08-01T04:27:53;18.30;99.90
21176;DHT22;10746;50.178;8.186;2022-08-01T04:30:23;18.40;99.90
21176;DHT22;10746;50.178;8.186;2022-08-01T04:32:55;18.50;99.90
21176;DHT22;10746;50.178;8.186;2022-08-01T04:35:24;18.40;99.90
21176;DHT22;10746;50.178;8.186;2022-08-01T04:37:52;18.50;99.90
21176;DHT22;10746;50.178;8.186;2022-08-01T04:40:20;18.60;99.90
21176;DHT22;10746;50.178;8.186;2022-08-01T04:42:48;18.50;99.90
21176;DHT22;10746;50.178;8.186;2022-08-01T04:45:16;18.50;99.90
21176;DHT22;10746;50.178;8.186;2022-08-01T04:47:43;18.50;99.90
21176;DHT22;10746;50.178;8.186;2022-08-01T04:50:14;18.60;99.90
21176;DHT22;10746;50.178;8.186;2022-08-01T04:52:40;18.60;99.90
21176;DHT22;10746;50.178;8.186;2022-08-01T04:55:08;18.60;99.90
21176;DHT22;10746;50.178;8.186;2022-08-01T04:57:39;18.60;99.90
21176;DHT22;10746;50.178;8.186;2022-08-01T05:00:07;18.60;99.90
21176;DHT22;10746;50.178;8.186;2022-08-01T05:02:34;18.60;99.90
21176;DHT22;10746;50.178;8.186;2022-08-01T05:05:01;18.70;99.90
21176;DHT22;10746;50.178;8.186;2022-08-01T05:07:29;18.60;99.90
21176;DHT22;10746;50.178;8.186;2022-08-01T05:09:56;18.60;99.90
21176;DHT22;10746;50.178;8.186;2022-08-01T05:12:22;18.60;99.90
21176;DHT22;10746;50.178;8.186;2022-08-01T05:14:49;18.60;99.90
21176;DHT22;10746;50.178;8.186;2022-08-01T05:17:16;18.70;99.90
21176;DHT22;10746;50.178;8.186;2022-08-01T05:19:43;18.70;99.90
21176;DHT22;10746;50.178;8.186;2022-08-01T05:22:09;18.60;99.90
21176;DHT22;10746;50.178;8.186;2022-08-01T05:24:39;18.60;99.90
21176;DHT22;10746;50.178;8.186;2022-08-01T05:27:07;18.70;99.90
21176;DHT22;10746;50.178;8.186;2022-08-01T05:29:35;18.70;99.90
21176;DHT22;10746;50.178;8.186;2022-08-01T05:32:02;18.80;99.90
21176;DHT22;10746;50.178;8.186;2022-08-01T05:34:29;18.80;99.90
21176;DHT22;10746;50.178;8.186;2022-08-01T05:36:55;18.80;99.90
21176;DHT22;10746;50.178;8.186;2022-08-01T05:39:22;18.80;99.90
21176;DHT22;10746;50.178;8.186;2022-08-01T05:41:50;18.90;99.90
21176;DHT22;10746;50.178;8.186;2022-08-01T05:44:17;19.00;99.90
21176;DHT22;10746;50.178;8.186;2022-08-01T05:46:44;19.00;99.90
21176;DHT22;10746;50.178;8.186;2022-08-01T05:49:11;19.00;99.90
21176;DHT22;10746;50.178;8.186;2022-08-01T05:51:38;19.10;99.90
21176;DHT22;10746;50.178;8.186;2022-08-01T05:54:05;19.00;99.90
21176;DHT22;10746;50.178;8.186;2022-08-01T05:56:32;19.10;99.90
21176;DHT22;10746;50.178;8.186;2022-08-01T05:59:00;19.20;99.90
21176;DHT22;10746;50.178;8.186;2022-08-01T06:01:27;19.20;99.90
21176;DHT22;10746;50.178;8.186;2022-08-01T06:03:54;19.20;99.90
21176;DHT22;10746;50.178;8.186;2022-08-01T06:06:21;19.30;99.90
21176;DHT22;10746;50.178;8.186;2022-08-01T06:08:48;19.40;99.90
21176;DHT22;10746;50.178;8.186;2022-08-01T06:11:15;19.40;99.90
21176;DHT22;10746;50.178;8.186;2022-08-01T06:13:41;19.40;99.90
21176;DHT22;10746;50.178;8.186;2022-08-01T06:16:09;19.40;99.90
21176;DHT22;10746;50.178;8.186;2022-08-01T06:18:36;19.40;99.90
21176;DHT22;10746;50.178;8.186;2022-08-01T06:21:03;19.50;99.90
21176;DHT22;10746;50.178;8.186;2022-08-01T06:23:30;19.50;99.90
21176;DHT22;10746;50.178;8.186;2022-08-01T06:25:56;19.60;99.90
21176;DHT22;10746;50.178;8.186;2022-08-01T06:28:24;19.60;99.90
21176;DHT22;10746;50.178;8.186;2022-08-01T06:30:50;19.50;99.90
21176;DHT22;10746;50.178;8.186;2022-08-01T06:33:18;19.60;99.90
21176;DHT22;10746;50.178;8.186;2022-08-01T06:35:46;19.60;99.90
21176;DHT22;10746;50.178;8.186;2022-08-01T06:38:12;19.60;99.90
21176;DHT22;10746;50.178;8.186;2022-08-01T06:40:39;19.60;99.90
21176;DHT22;10746;50.178;8.186;2022-08-01T06:43:06;19.70;99.90
21176;DHT22;10746;50.178;8.186;2022-08-01T06:45:33;19.70;99.90
21176;DHT22;10746;50.178;8.186;2022-08-01T06:48:02;19.60;99.90
21176;DHT22;10746;50.178;8.186;2022-08-01T06:50:30;19.60;99.90
21176;DHT22;10746;50.178;8.186;2022-08-01T06:52:57;19.60;99.90
21176;DHT22;10746;50.178;8.186;2022-08-01T06:55:24;19.70;99.90
21176;DHT22;10746;50.178;8.186;2022-08-01T06:57:51;19.70;99.90
21176;DHT22;10746;50.178;8.186;2022-08-01T07:00:20;19.80;99.90
21176;DHT22;10746;50.178;8.186;2022-08-01T07:02:47;20.00;99.90
21176;DHT22;10746;50.178;8.186;2022-08-01T07:05:14;20.20;99.90
21176;DHT22;10746;50.178;8.186;2022-08-01T07:07:42;20.50;99.90
21176;DHT22;10746;50.178;8.186;2022-08-01T07:10:10;20.40;99.90
21176;DHT22;10746;50.178;8.186;2022-08-01T07:12:37;20.60;99.90
21176;DHT22;10746;50.178;8.186;2022-08-01T07:15:06;20.70;99.90
21176;DHT22;10746;50.178;8.186;2022-08-01T07:17:37;21.00;99.90
21176;DHT22;10746;50.178;8.186;2022-08-01T07:20:05;21.00;99.90
21176;DHT22;10746;50.178;8.186;2022-08-01T07:22:31;21.10;99.90
21176;DHT22;10746;50.178;8.186;2022-08-01T07:24:59;21.30;99.90
21176;DHT22;10746;50.178;8.186;2022-08-01T07:27:26;21.30;99.90
21176;DHT22;10746;50.178;8.186;2022-08-01T07:29:53;21.50;99.90
21176;DHT22;10746;50.178;8.186;2022-08-01T07:32:19;21.80;99.90
21176;DHT22;10746;50.178;8.186;2022-08-01T07:34:46;22.10;99.90
21176;DHT22;10746;50.178;8.186;2022-08-01T07:37:13;22.60;99.90
21176;DHT22;10746;50.178;8.186;2022-08-01T07:39:40;23.10;99.90
21176;DHT22;10746;50.178;8.186;2022-08-01T07:42:08;23.20;99.90
21176;DHT22;10746;50.178;8.186;2022-08-01T07:44:35;22.80;99.90
21176;DHT22;10746;50.178;8.186;2022-08-01T07:47:02;22.70;99.90
21176;DHT22;10746;50.178;8.186;2022-08-01T07:49:29;22.40;99.90
21176;DHT22;10746;50.178;8.186;2022-08-01T07:51:55;21.80;99.90
21176;DHT22;10746;50.178;8.186;2022-08-01T07:54:22;21.60;99.90
21176;DHT22;10746;50.178;8.186;2022-08-01T07:56:50;21.60;99.90
21176;DHT22;10746;50.178;8.186;2022-08-01T07:59:18;21.50;99.90
21176;DHT22;10746;50.178;8.186;2022-08-01T08:01:48;21.50;99.90
21176;DHT22;10746;50.178;8.186;2022-08-01T08:04:15;21.40;99.90
21176;DHT22;10746;50.178;8.186;2022-08-01T08:06:41;21.30;99.90
21176;DHT22;10746;50.178;8.186;2022-08-01T08:09:08;21.30;99.90
21176;DHT22;10746;50.178;8.186;2022-08-01T08:11:35;21.50;99.90
21176;DHT22;10746;50.178;8.186;2022-08-01T08:14:02;21.70;99.90
21176;DHT22;10746;50.178;8.186;2022-08-01T08:16:30;22.40;99.90
21176;DHT22;10746;50.178;8.186;2022-08-01T08:18:56;22.70;99.90
21176;DHT22;10746;50.178;8.186;2022-08-01T08:21:23;22.70;99.90
21176;DHT22;10746;50.178;8.186;2022-08-01T08:23:50;23.00;99.90
21176;DHT22;10746;50.178;8.186;2022-08-01T08:26:34;23.10;99.90
21176;DHT22;10746;50.178;8.186;2022-08-01T08:29:00;23.50;99.90
21176;DHT22;10746;50.178;8.186;2022-08-01T08:31:27;23.80;99.90
21176;DHT22;10746;50.178;8.186;2022-08-01T08:33:55;24.00;99.90
21176;DHT22;10746;50.178;8.186;2022-08-01T08:36:22;23.40;99.90
21176;DHT22;10746;50.178;8.186;2022-08-01T08:38:48;23.10;99.90
21176;DHT22;10746;50.178;8.186;2022-08-01T08:41:15;23.30;99.90
21176;DHT22;10746;50.178;8.186;2022-08-01T08:43:42;23.60;99.90
21176;DHT22;10746;50.178;8.186;2022-08-01T08:46:11;23.40;99.90
21176;DHT22;10746;50.178;8.186;2022-08-01T08:48:39;23.30;99.90
21176;DHT22;10746;50.178;8.186;2022-08-01T08:51:07;23.20;99.90
21176;DHT22;10746;50.178;8.186;2022-08-01T08:53:37;23.00;99.90
21176;DHT22;10746;50.178;8.186;2022-08-01T08:56:06;23.10;99.90
21176;DHT22;10746;50.178;8.186;2022-08-01T08:58:35;22.80;99.90
21176;DHT22;10746;50.178;8.186;2022-08-01T09:01:04;22.60;99.90
21176;DHT22;10746;50.178;8.186;2022-08-01T09:03:32;22.70;99.90
21176;DHT22;10746;50.178;8.186;2022-08-01T09:05:58;22.60;99.90
21176;DHT22;10746;50.178;8.186;2022-08-01T09:08:26;22.60;99.90
21176;DHT22;10746;50.178;8.186;2022-08-01T09:10:53;22.60;99.90
21176;DHT22;10746;50.178;8.186;2022-08-01T09:13:20;22.70;99.90
21176;DHT22;10746;50.178;8.186;2022-08-01T09:15:48;22.80;99.90
21176;DHT22;10746;50.178;8.186;2022-08-01T09:18:29;23.10;99.90
21176;DHT22;10746;50.178;8.186;2022-08-01T09:21:14;23.70;99.90
21176;DHT22;10746;50.178;8.186;2022-08-01T09:23:44;23.80;99.90
21176;DHT22;10746;50.178;8.186;2022-08-01T09:26:12;24.00;99.90
21176;DHT22;10746;50.178;8.186;2022-08-01T09:28:40;23.80;99.90
21176;DHT22;10746;50.178;8.186;2022-08-01T09:31:08;23.60;99.90
21176;DHT22;10746;50.178;8.186;2022-08-01T09:33:53;23.20;99.90
21176;DHT22;10746;50.178;8.186;2022-08-01T09:36:22;23.20;99.90
21176;DHT22;10746;50.178;8.186;2022-08-01T09:38:51;23.20;99.90
21176;DHT22;10746;50.178;8.186;2022-08-01T09:41:28;23.50;99.90
21176;DHT22;10746;50.178;8.186;2022-08-01T09:43:55;23.90;99.90
21176;DHT22;10746;50.178;8.186;2022-08-01T09:46:22;24.10;99.90
21176;DHT22;10746;50.178;8.186;2022-08-01T09:48:57;24.20;99.90
21176;DHT22;10746;50.178;8.186;2022-08-01T09:51:28;24.80;99.90
21176;DHT22;10746;50.178;8.186;2022-08-01T09:53:56;25.00;99.90
21176;DHT22;10746;50.178;8.186;2022-08-01T09:56:24;25.00;99.90
21176;DHT22;10746;50.178;8.186;2022-08-01T09:58:55;25.00;99.90
21176;DHT22;10746;50.178;8.186;2022-08-01T10:01:23;25.00;99.90
21176;DHT22;10746;50.178;8.186;2022-08-01T10:04:05;24.70;99.90
21176;DHT22;10746;50.178;8.186;2022-08-01T10:06:31;24.80;99.90
21176;DHT22;10746;50.178;8.186;2022-08-01T10:08:59;25.40;99.90
21176;DHT22;10746;50.178;8.186;2022-08-01T10:11:26;25.90;99.90
21176;DHT22;10746;50.178;8.186;2022-08-01T10:13:55;26.00;99.90
21176;DHT22;10746;50.178;8.186;2022-08-01T10:16:22;25.90;99.90
21176;DHT22;10746;50.178;8.186;2022-08-01T10:18:49;25.60;99.90
21176;DHT22;10746;50.178;8.186;2022-08-01T10:21:16;24.90;99.90
21176;DHT22;10746;50.178;8.186;2022-08-01T10:23:45;24.50;99.90
21176;DHT22;10746;50.178;8.186;2022-08-01T10:26:13;24.70;99.90
21176;DHT22;10746;50.178;8.186;2022-08-01T10:28:44;25.00;99.90
21176;DHT22;10746;50.178;8.186;2022-08-01T10:31:14;25.30;99.90
21176;DHT22;10746;50.178;8.186;2022-08-01T10:33:43;25.70;99.90
21176;DHT22;10746;50.178;8.186;2022-08-01T10:36:10;25.70;99.90
21176;DHT22;10746;50.178;8.186;2022-08-01T10:38:37;25.50;99.90
21176;DHT22;10746;50.178;8.186;2022-08-01T10:41:05;25.70;99.90
21176;DHT22;10746;50.178;8.186;2022-08-01T10:43:33;26.10;99.90
21176;DHT22;10746;50.178;8.186;2022-08-01T10:46:00;26.30;99.90
21176;DHT22;10746;50.178;8.186;2022-08-01T10:48:31;26.10;99.90
21176;DHT22;10746;50.178;8.186;2022-08-01T10:51:03;25.50;99.90
21176;DHT22;10746;50.178;8.186;2022-08-01T10:53:30;25.30;99.90
21176;DHT22;10746;50.178;8.186;2022-08-01T10:55:59;25.20;99.90
21176;DHT22;10746;50.178;8.186;2022-08-01T10:58:28;25.30;99.90
21176;DHT22;10746;50.178;8.186;2022-08-01T11:01:20;25.00;99.90
21176;DHT22;10746;50.178;8.186;2022-08-01T11:04:08;24.90;99.90
21176;DHT22;10746;50.178;8.186;2022-08-01T11:06:42;25.00;99.90
21176;DHT22;10746;50.178;8.186;2022-08-01T11:09:25;25.40;99.90
21176;DHT22;10746;50.178;8.186;2022-08-01T11:12:01;25.80;99.90
21176;DHT22;10746;50.178;8.186;2022-08-01T11:14:30;26.10;99.90
21176;DHT22;10746;50.178;8.186;2022-08-01T11:20:06;26.20;99.90
21176;DHT22;10746;50.178;8.186;2022-08-01T11:26:21;26.40;99.90
21176;DHT22;10746;50.178;8.186;2022-08-01T11:29:16;26.20;99.90
21176;DHT22;10746;50.178;8.186;2022-08-01T11:31:42;25.80;99.90
21176;DHT22;10746;50.178;8.186;2022-08-01T11:34:10;25.40;99.90
21176;DHT22;10746;50.178;8.186;2022-08-01T11:36:37;25.40;99.90
21176;DHT22;10746;50.178;8.186;2022-08-01T11:39:15;25.20;99.90
21176;DHT22;10746;50.178;8.186;2022-08-01T11:41:43;25.10;99.90
21176;DHT22;10746;50.178;8.186;2022-08-01T11:44:12;25.20;99.90
21176;DHT22;10746;50.178;8.186;2022-08-01T11:46:46;25.20;99.90
21176;DHT22;10746;50.178;8.186;2022-08-01T11:49:32;25.10;99.90
21176;DHT22;10746;50.178;8.186;2022-08-01T11:52:02;25.10;99.90
21176;DHT22;10746;50.178;8.186;2022-08-01T11:54:31;25.00;99.90
21176;DHT22;10746;50.178;8.186;2022-08-01T11:56:59;25.20;99.90
21176;DHT22;10746;50.178;8.186;2022-08-01T11:59:26;25.40;99.90
21176;DHT22;10746;50.178;8.186;2022-08-01T12:01:53;25.80;99.90
21176;DHT22;10746;50.178;8.186;2022-08-01T12:04:20;25.90;99.90
21176;DHT22;10746;50.178;8.186;2022-08-01T12:06:48;26.30;99.90
21176;DHT22;10746;50.178;8.186;2022-08-01T12:09:16;26.20;99.90
21176;DHT22;10746;50.178;8.186;2022-08-01T12:11:43;26.70;99.90
21176;DHT22;10746;50.178;8.186;2022-08-01T12:14:15;26.80;99.90
21176;DHT22;10746;50.178;8.186;2022-08-01T12:16:48;26.80;99.90
21176;DHT22;10746;50.178;8.186;2022-08-01T12:19:19;26.60;99.90
21176;DHT22;10746;50.178;8.186;2022-08-01T12:22:06;26.30;99.90
21176;DHT22;10746;50.178;8.186;2022-08-01T12:24:33;25.90;99.90
21176;DHT22;10746;50.178;8.186;2022-08-01T12:27:01;25.60;99.90
21176;DHT22;10746;50.178;8.186;2022-08-01T12:29:32;25.50;99.90
21176;DHT22;10746;50.178;8.186;2022-08-01T12:31:59;25.40;99.90
21176;DHT22;10746;50.178;8.186;2022-08-01T12:34:26;25.30;99.90
21176;DHT22;10746;50.178;8.186;2022-08-01T12:36:54;25.20;99.90
21176;DHT22;10746;50.178;8.186;2022-08-01T12:39:29;25.10;99.90
21176;DHT22;10746;50.178;8.186;2022-08-01T12:41:56;25.00;99.90
21176;DHT22;10746;50.178;8.186;2022-08-01T12:44:23;24.90;99.90
21176;DHT22;10746;50.178;8.186;2022-08-01T12:46:50;24.80;99.90
21176;DHT22;10746;50.178;8.186;2022-08-01T12:49:17;24.60;99.90
21176;DHT22;10746;50.178;8.186;2022-08-01T12:51:44;24.50;99.90
21176;DHT22;10746;50.178;8.186;2022-08-01T12:54:11;24.50;99.90
21176;DHT22;10746;50.178;8.186;2022-08-01T12:56:39;24.40;99.90
21176;DHT22;10746;50.178;8.186;2022-08-01T12:59:19;24.40;99.90
21176;DHT22;10746;50.178;8.186;2022-08-01T13:01:47;24.40;99.90
21176;DHT22;10746;50.178;8.186;2022-08-01T13:04:14;24.30;99.90
21176;DHT22;10746;50.178;8.186;2022-08-01T13:06:41;24.40;99.90
21176;DHT22;10746;50.178;8.186;2022-08-01T13:09:08;24.50;99.90
21176;DHT22;10746;50.178;8.186;2022-08-01T13:11:36;24.60;99.90
21176;DHT22;10746;50.178;8.186;2022-08-01T13:14:04;24.70;99.90
21176;DHT22;10746;50.178;8.186;2022-08-01T13:16:31;24.80;99.90
21176;DHT22;10746;50.178;8.186;2022-08-01T13:18:58;24.80;99.90
21176;DHT22;10746;50.178;8.186;2022-08-01T13:21:27;24.80;99.90
21176;DHT22;10746;50.178;8.186;2022-08-01T13:24:04;24.80;99.90
21176;DHT22;10746;50.178;8.186;2022-08-01T13:26:42;25.00;99.90
21176;DHT22;10746;50.178;8.186;2022-08-01T13:29:13;25.00;99.90
21176;DHT22;10746;50.178;8.186;2022-08-01T13:31:40;25.00;99.90
21176;DHT22;10746;50.178;8.186;2022-08-01T13:34:08;24.80;99.90
21176;DHT22;10746;50.178;8.186;2022-08-01T13:36:35;24.80;99.90
21176;DHT22;10746;50.178;8.186;2022-08-01T13:39:03;24.80;99.90
21176;DHT22;10746;50.178;8.186;2022-08-01T13:41:48;24.90;99.90
21176;DHT22;10746;50.178;8.186;2022-08-01T13:44:16;25.00;99.90
21176;DHT22;10746;50.178;8.186;2022-08-01T13:46:43;24.80;99.90
21176;DHT22;10746;50.178;8.186;2022-08-01T13:49:13;24.70;99.90
21176;DHT22;10746;50.178;8.186;2022-08-01T13:51:39;24.50;99.90
21176;DHT22;10746;50.178;8.186;2022-08-01T13:54:06;24.60;99.90
21176;DHT22;10746;50.178;8.186;2022-08-01T13:56:34;24.40;99.90
21176;DHT22;10746;50.178;8.186;2022-08-01T13:59:00;24.50;99.90
21176;DHT22;10746;50.178;8.186;2022-08-01T14:01:28;24.60;99.90
21176;DHT22;10746;50.178;8.186;2022-08-01T14:03:55;24.60;99.90
21176;DHT22;10746;50.178;8.186;2022-08-01T14:06:22;24.80;99.90
21176;DHT22;10746;50.178;8.186;2022-08-01T14:08:48;24.90;99.90
21176;DHT22;10746;50.178;8.186;2022-08-01T14:11:15;25.20;99.90
21176;DHT22;10746;50.178;8.186;2022-08-01T14:13:42;25.50;99.90
21176;DHT22;10746;50.178;8.186;2022-08-01T14:16:09;25.70;99.90
21176;DHT22;10746;50.178;8.186;2022-08-01T14:18:37;25.90;99.90
21176;DHT22;10746;50.178;8.186;2022-08-01T14:21:04;26.10;99.90
21176;DHT22;10746;50.178;8.186;2022-08-01T14:23:30;25.90;99.90
21176;DHT22;10746;50.178;8.186;2022-08-01T14:25:57;25.80;99.90
21176;DHT22;10746;50.178;8.186;2022-08-01T14:28:24;25.80;99.90
21176;DHT22;10746;50.178;8.186;2022-08-01T14:30:53;25.70;99.90
21176;DHT22;10746;50.178;8.186;2022-08-01T14:33:21;25.70;99.90
21176;DHT22;10746;50.178;8.186;2022-08-01T14:35:49;25.70;99.90
21176;DHT22;10746;50.178;8.186;2022-08-01T14:38:16;25.90;99.90
21176;DHT22;10746;50.178;8.186;2022-08-01T14:40:43;26.00;99.90
21176;DHT22;10746;50.178;8.186;2022-08-01T14:43:12;26.20;99.90
21176;DHT22;10746;50.178;8.186;2022-08-01T14:45:39;26.70;99.90
21176;DHT22;10746;50.178;8.186;2022-08-01T14:48:05;27.00;99.90
21176;DHT22;10746;50.178;8.186;2022-08-01T14:50:32;27.10;99.90
21176;DHT22;10746;50.178;8.186;2022-08-01T14:53:00;27.10;99.90
21176;DHT22;10746;50.178;8.186;2022-08-01T14:55:27;27.10;99.90
21176;DHT22;10746;50.178;8.186;2022-08-01T14:57:53;26.90;99.90
21176;DHT22;10746;50.178;8.186;2022-08-01T15:00:20;26.80;99.90
21176;DHT22;10746;50.178;8.186;2022-08-01T15:02:48;26.70;99.90
21176;DHT22;10746;50.178;8.186;2022-08-01T15:05:14;26.60;99.90
21176;DHT22;10746;50.178;8.186;2022-08-01T15:07:41;26.30;99.90
21176;DHT22;10746;50.178;8.186;2022-08-01T15:10:09;26.50;99.90
21176;DHT22;10746;50.178;8.186;2022-08-01T15:12:36;26.20;99.90
21176;DHT22;10746;50.178;8.186;2022-08-01T15:15:04;26.30;99.90
21176;DHT22;10746;50.178;8.186;2022-08-01T15:17:31;26.40;99.90
21176;DHT22;10746;50.178;8.186;2022-08-01T15:20:00;26.60;99.90
21176;DHT22;10746;50.178;8.186;2022-08-01T15:22:28;26.90;99.90
21176;DHT22;10746;50.178;8.186;2022-08-01T15:24:56;27.10;99.90
21176;DHT22;10746;50.178;8.186;2022-08-01T15:27:25;26.80;99.90
21176;DHT22;10746;50.178;8.186;2022-08-01T15:29:52;27.00;99.90
21176;DHT22;10746;50.178;8.186;2022-08-01T15:32:19;26.90;99.90
21176;DHT22;10746;50.178;8.186;2022-08-01T15:34:46;26.60;99.90
21176;DHT22;10746;50.178;8.186;2022-08-01T15:37:13;26.30;99.90
21176;DHT22;10746;50.178;8.186;2022-08-01T15:39:40;26.20;99.90
21176;DHT22;10746;50.178;8.186;2022-08-01T15:42:09;25.90;99.90
21176;DHT22;10746;50.178;8.186;2022-08-01T15:44:38;25.80;99.90
21176;DHT22;10746;50.178;8.186;2022-08-01T15:47:05;25.50;99.90